sensor_id;sensor_type;location;lat;lon;timestamp;P1;durP1;ratioP1;P2;durP2;ratioP2
41709;SDS011;59402;48.396;-4.472;2022-10-16T00:01:36;16.60;;;1.90;;
41709;SDS011;59402;48.396;-4.472;2022-10-16T00:04:55;18.13;;;1.95;;
41709;SDS011;59402;48.396;-4.472;2022-10-16T00:08:13;19.33;;;2.40;;
41709;SDS011;59402;48.396;-4.472;2022-10-16T00:11:32;17.80;;;2.10;;
41709;SDS011;59402;48.396;-4.472;2022-10-16T00:14:51;17.23;;;1.80;;
41709;SDS011;59402;48.396;-4.472;2022-10-16T00:18:09;14.20;;;2.33;;
41709;SDS011;59402;48.396;-4.472;2022-10-16T00:21:28;11.75;;;2.20;;
41709;SDS011;59402;48.396;-4.472;2022-10-16T00:24:47;15.80;;;2.10;;
41709;SDS011;59402;48.396;-4.472;2022-10-16T00:28:05;16.05;;;1.95;;
41709;SDS011;59402;48.396;-4.472;2022-10-16T00:31:23;14.55;;;1.85;;
41709;SDS011;59402;48.396;-4.472;2022-10-16T00:34:42;27.13;;;3.38;;
41709;SDS011;59402;48.396;-4.472;2022-10-16T00:38:00;11.65;;;1.70;;
41709;SDS011;59402;48.396;-4.472;2022-10-16T00:41:19;19.90;;;2.58;;
41709;SDS011;59402;48.396;-4.472;2022-10-16T00:48:00;15.50;;;2.35;;
41709;SDS011;59402;48.396;-4.472;2022-10-16T00:51:48;18.42;;;2.40;;
41709;SDS011;59402;48.396;-4.472;2022-10-16T00:55:07;23.13;;;3.28;;
41709;SDS011;59402;48.396;-4.472;2022-10-16T00:58:26;15.55;;;2.45;;
41709;SDS011;59402;48.396;-4.472;2022-10-16T01:01:49;19.85;;;2.70;;
41709;SDS011;59402;48.396;-4.472;2022-10-16T01:05:08;16.92;;;2.63;;
41709;SDS011;59402;48.396;-4.472;2022-10-16T01:08:50;21.90;;;2.75;;
41709;SDS011;59402;48.396;-4.472;2022-10-16T01:15:55;20.00;;;3.28;;
41709;SDS011;59402;48.396;-4.472;2022-10-16T01:27:02;21.52;;;2.60;;
41709;SDS011;59402;48.396;-4.472;2022-10-16T01:30:26;26.55;;;2.80;;
41709;SDS011;59402;48.396;-4.472;2022-10-16T01:33:49;19.77;;;2.97;;
41709;SDS011;59402;48.396;-4.472;2022-10-16T01:37:26;27.27;;;2.53;;
41709;SDS011;59402;48.396;-4.472;2022-10-16T01:40:56;19.15;;;3.30;;
41709;SDS011;59402;48.396;-4.472;2022-10-16T01:44:36;23.52;;;2.60;;
41709;SDS011;59402;48.396;-4.472;2022-10-16T01:47:56;26.23;;;3.00;;
41709;SDS011;59402;48.396;-4.472;2022-10-16T01:51:16;26.15;;;3.47;;
41709;SDS011;59402;48.396;-4.472;2022-10-16T01:54:39;21.33;;;3.08;;
41709;SDS011;59402;48.396;-4.472;2022-10-16T01:58:02;25.48;;;3.25;;
41709;SDS011;59402;48.396;-4.472;2022-10-16T02:01:28;23.05;;;3.05;;
41709;SDS011;59402;48.396;-4.472;2022-10-16T02:05:31;20.20;;;2.80;;
41709;SDS011;59402;48.396;-4.472;2022-10-16T02:08:29;27.10;;;2.95;;
41709;SDS011;59402;48.396;-4.472;2022-10-16T02:11:48;15.82;;;2.58;;
41709;SDS011;59402;48.396;-4.472;2022-10-16T02:15:09;26.13;;;4.15;;
41709;SDS011;59402;48.396;-4.472;2022-10-16T02:18:27;27.98;;;3.58;;
41709;SDS011;59402;48.396;-4.472;2022-10-16T02:21:48;23.08;;;3.03;;
41709;SDS011;59402;48.396;-4.472;2022-10-16T02:25:25;20.85;;;2.92;;
41709;SDS011;59402;48.396;-4.472;2022-10-16T02:28:50;30.77;;;3.75;;
41709;SDS011;59402;48.396;-4.472;2022-10-16T02:32:19;19.20;;;2.78;;
41709;SDS011;59402;48.396;-4.472;2022-10-16T02:35:40;26.63;;;3.65;;
41709;SDS011;59402;48.396;-4.472;2022-10-16T02:39:00;25.17;;;3.35;;
41709;SDS011;59402;48.396;-4.472;2022-10-16T02:42:20;24.08;;;3.22;;
41709;SDS011;59402;48.396;-4.472;2022-10-16T02:45:38;29.35;;;3.53;;
41709;SDS011;59402;48.396;-4.472;2022-10-16T02:48:57;23.55;;;3.30;;
41709;SDS011;59402;48.396;-4.472;2022-10-16T02:52:15;29.15;;;3.50;;
41709;SDS011;59402;48.396;-4.472;2022-10-16T02:55:33;27.52;;;3.42;;
41709;SDS011;59402;48.396;-4.472;2022-10-16T02:58:51;26.88;;;3.45;;
41709;SDS011;59402;48.396;-4.472;2022-10-16T03:02:09;23.98;;;2.88;;
41709;SDS011;59402;48.396;-4.472;2022-10-16T03:05:27;25.67;;;3.40;;
41709;SDS011;59402;48.396;-4.472;2022-10-16T03:08:46;28.00;;;3.40;;
41709;SDS011;59402;48.396;-4.472;2022-10-16T03:12:04;29.08;;;3.53;;
41709;SDS011;59402;48.396;-4.472;2022-10-16T03:15:22;35.28;;;4.20;;
41709;SDS011;59402;48.396;-4.472;2022-10-16T03:18:40;27.83;;;3.67;;
41709;SDS011;59402;48.396;-4.472;2022-10-16T03:21:58;29.17;;;3.40;;
41709;SDS011;59402;48.396;-4.472;2022-10-16T03:25:16;30.33;;;3.20;;
41709;SDS011;59402;48.396;-4.472;2022-10-16T03:28:34;33.58;;;3.70;;
41709;SDS011;59402;48.396;-4.472;2022-10-16T03:31:52;30.83;;;3.72;;
41709;SDS011;59402;48.396;-4.472;2022-10-16T03:35:10;25.65;;;3.45;;
41709;SDS011;59402;48.396;-4.472;2022-10-16T03:38:28;27.17;;;3.38;;
41709;SDS011;59402;48.396;-4.472;2022-10-16T03:41:46;33.80;;;4.57;;
41709;SDS011;59402;48.396;-4.472;2022-10-16T03:45:05;30.98;;;3.83;;
41709;SDS011;59402;48.396;-4.472;2022-10-16T03:48:23;28.83;;;3.42;;
41709;SDS011;59402;48.396;-4.472;2022-10-16T03:51:41;28.13;;;3.70;;
41709;SDS011;59402;48.396;-4.472;2022-10-16T03:54:59;31.40;;;4.60;;
41709;SDS011;59402;48.396;-4.472;2022-10-16T03:58:17;29.17;;;3.67;;
41709;SDS011;59402;48.396;-4.472;2022-10-16T04:01:35;27.73;;;3.95;;
41709;SDS011;59402;48.396;-4.472;2022-10-16T04:04:53;26.25;;;3.75;;
41709;SDS011;59402;48.396;-4.472;2022-10-16T04:08:11;25.08;;;3.58;;
41709;SDS011;59402;48.396;-4.472;2022-10-16T04:11:29;30.10;;;4.00;;
41709;SDS011;59402;48.396;-4.472;2022-10-16T04:14:47;33.22;;;4.45;;
41709;SDS011;59402;48.396;-4.472;2022-10-16T04:18:05;36.17;;;4.75;;
41709;SDS011;59402;48.396;-4.472;2022-10-16T04:21:23;35.30;;;4.57;;
41709;SDS011;59402;48.396;-4.472;2022-10-16T04:24:41;29.35;;;4.28;;
41709;SDS011;59402;48.396;-4.472;2022-10-16T04:27:59;35.85;;;4.43;;
41709;SDS011;59402;48.396;-4.472;2022-10-16T04:31:17;31.42;;;4.22;;
41709;SDS011;59402;48.396;-4.472;2022-10-16T04:34:35;29.20;;;4.18;;
41709;SDS011;59402;48.396;-4.472;2022-10-16T04:37:53;39.75;;;5.03;;
41709;SDS011;59402;48.396;-4.472;2022-10-16T04:41:11;28.27;;;3.88;;
41709;SDS011;59402;48.396;-4.472;2022-10-16T04:44:29;32.72;;;4.18;;
41709;SDS011;59402;48.396;-4.472;2022-10-16T04:47:47;31.20;;;4.13;;
41709;SDS011;59402;48.396;-4.472;2022-10-16T04:51:05;32.38;;;4.00;;
41709;SDS011;59402;48.396;-4.472;2022-10-16T04:54:23;28.45;;;3.50;;
41709;SDS011;59402;48.396;-4.472;2022-10-16T04:57:41;26.55;;;3.67;;
41709;SDS011;59402;48.396;-4.472;2022-10-16T05:00:59;27.02;;;3.60;;
41709;SDS011;59402;48.396;-4.472;2022-10-16T05:04:17;31.83;;;4.38;;
41709;SDS011;59402;48.396;-4.472;2022-10-16T05:07:35;18.65;;;3.33;;
41709;SDS011;59402;48.396;-4.472;2022-10-16T05:10:53;25.35;;;3.70;;
41709;SDS011;59402;48.396;-4.472;2022-10-16T05:14:11;30.20;;;3.88;;
41709;SDS011;59402;48.396;-4.472;2022-10-16T05:17:29;26.40;;;3.25;;
41709;SDS011;59402;48.396;-4.472;2022-10-16T05:20:47;24.92;;;3.90;;
41709;SDS011;59402;48.396;-4.472;2022-10-16T05:24:05;29.42;;;3.75;;
41709;SDS011;59402;48.396;-4.472;2022-10-16T05:27:23;20.17;;;3.22;;
41709;SDS011;59402;48.396;-4.472;2022-10-16T05:30:41;22.08;;;4.10;;
41709;SDS011;59402;48.396;-4.472;2022-10-16T05:33:59;23.80;;;3.08;;
41709;SDS011;59402;48.396;-4.472;2022-10-16T05:37:17;20.00;;;2.78;;
41709;SDS011;59402;48.396;-4.472;2022-10-16T05:40:35;27.83;;;3.50;;
41709;SDS011;59402;48.396;-4.472;2022-10-16T05:43:53;19.23;;;3.67;;
41709;SDS011;59402;48.396;-4.472;2022-10-16T05:47:12;22.10;;;5.85;;
41709;SDS011;59402;48.396;-4.472;2022-10-16T05:50:30;16.85;;;4.43;;
41709;SDS011;59402;48.396;-4.472;2022-10-16T05:53:48;24.35;;;5.38;;
41709;SDS011;59402;48.396;-4.472;2022-10-16T05:57:06;22.85;;;4.05;;
41709;SDS011;59402;48.396;-4.472;2022-10-16T06:00:24;26.20;;;3.10;;
41709;SDS011;59402;48.396;-4.472;2022-10-16T06:03:43;25.42;;;3.05;;
41709;SDS011;59402;48.396;-4.472;2022-10-16T06:07:01;22.00;;;2.88;;
41709;SDS011;59402;48.396;-4.472;2022-10-16T06:10:19;23.50;;;3.38;;
41709;SDS011;59402;48.396;-4.472;2022-10-16T06:13:56;15.77;;;2.75;;
41709;SDS011;59402;48.396;-4.472;2022-10-16T06:17:15;17.23;;;3.22;;
41709;SDS011;59402;48.396;-4.472;2022-10-16T06:20:34;22.20;;;2.85;;
41709;SDS011;59402;48.396;-4.472;2022-10-16T06:23:54;29.05;;;3.00;;
41709;SDS011;59402;48.396;-4.472;2022-10-16T06:27:12;18.73;;;3.25;;
41709;SDS011;59402;48.396;-4.472;2022-10-16T06:30:30;17.48;;;3.15;;
41709;SDS011;59402;48.396;-4.472;2022-10-16T06:33:52;17.75;;;3.08;;
41709;SDS011;59402;48.396;-4.472;2022-10-16T06:37:11;18.95;;;2.80;;
41709;SDS011;59402;48.396;-4.472;2022-10-16T06:40:29;21.83;;;3.38;;
41709;SDS011;59402;48.396;-4.472;2022-10-16T06:43:47;15.77;;;2.92;;
41709;SDS011;59402;48.396;-4.472;2022-10-16T06:47:05;21.10;;;2.70;;
41709;SDS011;59402;48.396;-4.472;2022-10-16T06:50:23;21.50;;;3.17;;
41709;SDS011;59402;48.396;-4.472;2022-10-16T06:53:44;16.85;;;2.60;;
41709;SDS011;59402;48.396;-4.472;2022-10-16T06:57:02;25.13;;;4.20;;
41709;SDS011;59402;48.396;-4.472;2022-10-16T07:00:20;16.52;;;3.05;;
41709;SDS011;59402;48.396;-4.472;2022-10-16T07:03:40;14.52;;;2.45;;
41709;SDS011;59402;48.396;-4.472;2022-10-16T07:07:00;18.67;;;3.20;;
41709;SDS011;59402;48.396;-4.472;2022-10-16T07:10:18;15.38;;;2.53;;
41709;SDS011;59402;48.396;-4.472;2022-10-16T07:13:37;19.27;;;2.47;;
41709;SDS011;59402;48.396;-4.472;2022-10-16T07:16:55;14.40;;;2.28;;
41709;SDS011;59402;48.396;-4.472;2022-10-16T07:20:14;23.50;;;2.65;;
41709;SDS011;59402;48.396;-4.472;2022-10-16T07:23:38;10.93;;;2.40;;
41709;SDS011;59402;48.396;-4.472;2022-10-16T07:26:56;10.95;;;2.10;;
41709;SDS011;59402;48.396;-4.472;2022-10-16T07:30:14;15.23;;;2.92;;
41709;SDS011;59402;48.396;-4.472;2022-10-16T07:33:35;12.68;;;2.38;;
41709;SDS011;59402;48.396;-4.472;2022-10-16T07:36:53;10.07;;;2.72;;
41709;SDS011;59402;48.396;-4.472;2022-10-16T07:40:12;12.80;;;2.90;;
41709;SDS011;59402;48.396;-4.472;2022-10-16T07:43:31;9.35;;;2.42;;
41709;SDS011;59402;48.396;-4.472;2022-10-16T07:46:49;8.75;;;2.78;;
41709;SDS011;59402;48.396;-4.472;2022-10-16T07:50:07;8.82;;;2.72;;
41709;SDS011;59402;48.396;-4.472;2022-10-16T07:53:27;7.32;;;2.38;;
41709;SDS011;59402;48.396;-4.472;2022-10-16T07:56:45;5.55;;;1.98;;
41709;SDS011;59402;48.396;-4.472;2022-10-16T08:00:03;6.32;;;2.00;;
41709;SDS011;59402;48.396;-4.472;2022-10-16T08:03:21;9.10;;;2.63;;
41709;SDS011;59402;48.396;-4.472;2022-10-16T08:06:40;6.25;;;1.92;;
41709;SDS011;59402;48.396;-4.472;2022-10-16T08:09:58;8.60;;;2.40;;
41709;SDS011;59402;48.396;-4.472;2022-10-16T08:13:16;5.22;;;2.25;;
41709;SDS011;59402;48.396;-4.472;2022-10-16T08:16:34;6.65;;;2.00;;
41709;SDS011;59402;48.396;-4.472;2022-10-16T08:19:52;9.10;;;2.42;;
41709;SDS011;59402;48.396;-4.472;2022-10-16T08:23:11;10.32;;;2.95;;
41709;SDS011;59402;48.396;-4.472;2022-10-16T08:26:29;7.38;;;3.15;;
41709;SDS011;59402;48.396;-4.472;2022-10-16T08:29:50;9.05;;;3.42;;
41709;SDS011;59402;48.396;-4.472;2022-10-16T08:33:08;7.63;;;3.20;;
41709;SDS011;59402;48.396;-4.472;2022-10-16T08:36:26;7.80;;;3.63;;
41709;SDS011;59402;48.396;-4.472;2022-10-16T08:39:44;8.63;;;3.28;;
41709;SDS011;59402;48.396;-4.472;2022-10-16T08:46:51;5.32;;;3.60;;
41709;SDS011;59402;48.396;-4.472;2022-10-16T08:50:17;9.10;;;4.45;;
41709;SDS011;59402;48.396;-4.472;2022-10-16T08:53:49;8.52;;;4.25;;
41709;SDS011;59402;48.396;-4.472;2022-10-16T08:57:22;7.50;;;3.92;;
41709;SDS011;59402;48.396;-4.472;2022-10-16T09:00:42;9.57;;;3.90;;
41709;SDS011;59402;48.396;-4.472;2022-10-16T09:12:00;15.15;;;3.60;;
41709;SDS011;59402;48.396;-4.472;2022-10-16T09:19:00;10.43;;;2.50;;
41709;SDS011;59402;48.396;-4.472;2022-10-16T09:22:28;18.93;;;3.60;;
41709;SDS011;59402;48.396;-4.472;2022-10-16T09:25:52;10.70;;;2.63;;
41709;SDS011;59402;48.396;-4.472;2022-10-16T09:29:12;10.70;;;2.65;;
41709;SDS011;59402;48.396;-4.472;2022-10-16T09:32:38;8.65;;;2.38;;
41709;SDS011;59402;48.396;-4.472;2022-10-16T09:36:02;8.52;;;2.88;;
41709;SDS011;59402;48.396;-4.472;2022-10-16T09:39:22;12.38;;;3.47;;
41709;SDS011;59402;48.396;-4.472;2022-10-16T09:43:00;8.25;;;2.15;;
41709;SDS011;59402;48.396;-4.472;2022-10-16T09:46:29;8.35;;;1.67;;
41709;SDS011;59402;48.396;-4.472;2022-10-16T09:49:55;9.52;;;1.70;;
41709;SDS011;59402;48.396;-4.472;2022-10-16T09:53:23;10.38;;;1.95;;
41709;SDS011;59402;48.396;-4.472;2022-10-16T09:56:44;9.05;;;2.78;;
41709;SDS011;59402;48.396;-4.472;2022-10-16T10:00:04;10.68;;;1.75;;
41709;SDS011;59402;48.396;-4.472;2022-10-16T10:03:36;11.73;;;2.65;;
41709;SDS011;59402;48.396;-4.472;2022-10-16T10:07:03;16.50;;;2.92;;
41709;SDS011;59402;48.396;-4.472;2022-10-16T10:10:39;10.55;;;2.60;;
41709;SDS011;59402;48.396;-4.472;2022-10-16T10:14:08;9.65;;;2.47;;
41709;SDS011;59402;48.396;-4.472;2022-10-16T10:17:48;8.77;;;2.40;;
41709;SDS011;59402;48.396;-4.472;2022-10-16T10:21:12;10.82;;;2.78;;
41709;SDS011;59402;48.396;-4.472;2022-10-16T10:24:41;10.18;;;2.75;;
41709;SDS011;59402;48.396;-4.472;2022-10-16T10:28:16;11.35;;;2.10;;
41709;SDS011;59402;48.396;-4.472;2022-10-16T10:32:08;10.15;;;2.00;;
41709;SDS011;59402;48.396;-4.472;2022-10-16T10:39:33;12.48;;;1.85;;
41709;SDS011;59402;48.396;-4.472;2022-10-16T10:47:17;19.23;;;5.13;;
41709;SDS011;59402;48.396;-4.472;2022-10-16T10:50:47;11.63;;;3.60;;
41709;SDS011;59402;48.396;-4.472;2022-10-16T10:54:20;12.77;;;3.72;;
41709;SDS011;59402;48.396;-4.472;2022-10-16T10:57:52;12.07;;;4.40;;
41709;SDS011;59402;48.396;-4.472;2022-10-16T11:01:29;10.18;;;2.58;;
41709;SDS011;59402;48.396;-4.472;2022-10-16T11:08:33;9.77;;;1.98;;
41709;SDS011;59402;48.396;-4.472;2022-10-16T11:12:00;9.27;;;2.08;;
41709;SDS011;59402;48.396;-4.472;2022-10-16T11:15:41;7.45;;;1.70;;
41709;SDS011;59402;48.396;-4.472;2022-10-16T11:22:38;10.75;;;1.70;;
41709;SDS011;59402;48.396;-4.472;2022-10-16T11:26:05;9.05;;;1.50;;
41709;SDS011;59402;48.396;-4.472;2022-10-16T11:29:29;7.03;;;1.63;;
41709;SDS011;59402;48.396;-4.472;2022-10-16T11:32:50;9.48;;;1.75;;
41709;SDS011;59402;48.396;-4.472;2022-10-16T11:36:25;10.40;;;1.45;;
41709;SDS011;59402;48.396;-4.472;2022-10-16T11:39:49;8.27;;;1.25;;
41709;SDS011;59402;48.396;-4.472;2022-10-16T11:58:03;12.63;;;1.27;;
41709;SDS011;59402;48.396;-4.472;2022-10-16T12:05:22;10.32;;;3.47;;
41709;SDS011;59402;48.396;-4.472;2022-10-16T12:09:01;5.10;;;1.42;;
41709;SDS011;59402;48.396;-4.472;2022-10-16T12:12:26;4.72;;;0.95;;
41709;SDS011;59402;48.396;-4.472;2022-10-16T12:16:04;6.50;;;1.10;;
41709;SDS011;59402;48.396;-4.472;2022-10-16T12:19:24;4.95;;;0.90;;
41709;SDS011;59402;48.396;-4.472;2022-10-16T12:26:12;5.57;;;1.40;;
41709;SDS011;59402;48.396;-4.472;2022-10-16T12:32:55;7.55;;;1.55;;
41709;SDS011;59402;48.396;-4.472;2022-10-16T12:36:26;9.90;;;1.45;;
41709;SDS011;59402;48.396;-4.472;2022-10-16T12:39:54;6.93;;;1.42;;
41709;SDS011;59402;48.396;-4.472;2022-10-16T12:43:27;10.52;;;1.70;;
41709;SDS011;59402;48.396;-4.472;2022-10-16T12:53:58;10.98;;;1.77;;
41709;SDS011;59402;48.396;-4.472;2022-10-16T13:15:27;0.90;;;0.43;;
41709;SDS011;59402;48.396;-4.472;2022-10-16T13:26:09;0.10;;;0.10;;
41709;SDS011;59402;48.396;-4.472;2022-10-16T13:29:30;0.10;;;0.10;;
41709;SDS011;59402;48.396;-4.472;2022-10-16T13:36:27;0.10;;;0.10;;
41709;SDS011;59402;48.396;-4.472;2022-10-16T13:39:47;0.10;;;0.10;;
41709;SDS011;59402;48.396;-4.472;2022-10-16T13:43:17;0.10;;;0.10;;
41709;SDS011;59402;48.396;-4.472;2022-10-16T13:46:41;0.20;;;0.15;;
41709;SDS011;59402;48.396;-4.472;2022-10-16T13:50:03;0.10;;;0.10;;
41709;SDS011;59402;48.396;-4.472;2022-10-16T13:53:31;0.10;;;0.10;;
41709;SDS011;59402;48.396;-4.472;2022-10-16T13:56:51;0.10;;;0.10;;
41709;SDS011;59402;48.396;-4.472;2022-10-16T14:00:23;0.15;;;0.15;;
41709;SDS011;59402;48.396;-4.472;2022-10-16T14:03:43;0.10;;;0.10;;
41709;SDS011;59402;48.396;-4.472;2022-10-16T14:07:03;0.05;;;0.05;;
41709;SDS011;59402;48.396;-4.472;2022-10-16T14:10:24;0.20;;;0.20;;
41709;SDS011;59402;48.396;-4.472;2022-10-16T14:13:49;0.10;;;0.10;;
41709;SDS011;59402;48.396;-4.472;2022-10-16T14:17:19;0.00;;;0.00;;
41709;SDS011;59402;48.396;-4.472;2022-10-16T14:20:45;0.00;;;0.00;;
41709;SDS011;59402;48.396;-4.472;2022-10-16T14:24:12;1.75;;;1.00;;
41709;SDS011;59402;48.396;-4.472;2022-10-16T14:27:59;0.00;;;0.00;;
41709;SDS011;59402;48.396;-4.472;2022-10-16T14:31:36;0.32;;;0.32;;
41709;SDS011;59402;48.396;-4.472;2022-10-16T14:34:55;0.40;;;0.40;;
41709;SDS011;59402;48.396;-4.472;2022-10-16T14:38:24;0.55;;;0.35;;
41709;SDS011;59402;48.396;-4.472;2022-10-16T14:41:45;0.10;;;0.10;;
41709;SDS011;59402;48.396;-4.472;2022-10-16T14:45:08;0.10;;;0.10;;
41709;SDS011;59402;48.396;-4.472;2022-10-16T14:48:29;0.22;;;0.22;;
41709;SDS011;59402;48.396;-4.472;2022-10-16T14:51:48;0.00;;;0.00;;
41709;SDS011;59402;48.396;-4.472;2022-10-16T14:55:09;0.20;;;0.20;;
41709;SDS011;59402;48.396;-4.472;2022-10-16T14:58:31;0.30;;;0.30;;
41709;SDS011;59402;48.396;-4.472;2022-10-16T15:02:46;0.25;;;0.22;;
41709;SDS011;59402;48.396;-4.472;2022-10-16T15:05:44;0.00;;;0.00;;
41709;SDS011;59402;48.396;-4.472;2022-10-16T15:09:02;0.10;;;0.10;;
41709;SDS011;59402;48.396;-4.472;2022-10-16T15:12:22;0.10;;;0.10;;
41709;SDS011;59402;48.396;-4.472;2022-10-16T15:15:41;0.38;;;0.38;;
41709;SDS011;59402;48.396;-4.472;2022-10-16T15:19:00;0.45;;;0.43;;
41709;SDS011;59402;48.396;-4.472;2022-10-16T15:22:17;0.00;;;0.00;;
41709;SDS011;59402;48.396;-4.472;2022-10-16T15:25:43;0.30;;;0.20;;
41709;SDS011;59402;48.396;-4.472;2022-10-16T15:29:02;0.38;;;0.30;;
41709;SDS011;59402;48.396;-4.472;2022-10-16T15:32:20;0.00;;;0.00;;
41709;SDS011;59402;48.396;-4.472;2022-10-16T15:35:39;0.10;;;0.10;;
41709;SDS011;59402;48.396;-4.472;2022-10-16T15:39:01;0.40;;;0.40;;
41709;SDS011;59402;48.396;-4.472;2022-10-16T15:42:19;0.20;;;0.20;;
41709;SDS011;59402;48.396;-4.472;2022-10-16T15:45:37;0.38;;;0.38;;
41709;SDS011;59402;48.396;-4.472;2022-10-16T15:48:57;0.10;;;0.10;;
41709;SDS011;59402;48.396;-4.472;2022-10-16T15:52:15;0.38;;;0.30;;
41709;SDS011;59402;48.396;-4.472;2022-10-16T15:55:33;0.80;;;0.80;;
41709;SDS011;59402;48.396;-4.472;2022-10-16T15:58:53;0.50;;;0.47;;
41709;SDS011;59402;48.396;-4.472;2022-10-16T16:02:11;0.00;;;0.00;;
41709;SDS011;59402;48.396;-4.472;2022-10-16T16:05:29;0.03;;;0.03;;
41709;SDS011;59402;48.396;-4.472;2022-10-16T16:08:51;0.65;;;0.20;;
41709;SDS011;59402;48.396;-4.472;2022-10-16T16:12:10;4.47;;;0.70;;
41709;SDS011;59402;48.396;-4.472;2022-10-16T16:15:28;0.00;;;0.00;;
41709;SDS011;59402;48.396;-4.472;2022-10-16T16:18:46;2.80;;;0.43;;
41709;SDS011;59402;48.396;-4.472;2022-10-16T16:22:04;0.75;;;0.55;;
41709;SDS011;59402;48.396;-4.472;2022-10-16T16:25:22;0.77;;;0.77;;
41709;SDS011;59402;48.396;-4.472;2022-10-16T16:28:57;4.75;;;2.70;;
41709;SDS011;59402;48.396;-4.472;2022-10-16T16:32:15;0.43;;;0.43;;
41709;SDS011;59402;48.396;-4.472;2022-10-16T16:35:33;0.77;;;0.77;;
41709;SDS011;59402;48.396;-4.472;2022-10-16T16:38:51;0.10;;;0.10;;
41709;SDS011;59402;48.396;-4.472;2022-10-16T16:42:09;0.45;;;0.40;;
41709;SDS011;59402;48.396;-4.472;2022-10-16T16:45:29;0.38;;;0.30;;
41709;SDS011;59402;48.396;-4.472;2022-10-16T16:48:47;1.00;;;0.40;;
41709;SDS011;59402;48.396;-4.472;2022-10-16T16:52:05;2.30;;;1.25;;
41709;SDS011;59402;48.396;-4.472;2022-10-16T16:55:23;9.18;;;1.95;;
41709;SDS011;59402;48.396;-4.472;2022-10-16T16:58:44;0.47;;;0.47;;
41709;SDS011;59402;48.396;-4.472;2022-10-16T17:02:02;2.10;;;1.17;;
41709;SDS011;59402;48.396;-4.472;2022-10-16T17:05:21;0.00;;;0.00;;
41709;SDS011;59402;48.396;-4.472;2022-10-16T17:08:39;0.43;;;0.43;;
41709;SDS011;59402;48.396;-4.472;2022-10-16T17:11:58;4.10;;;0.57;;
41709;SDS011;59402;48.396;-4.472;2022-10-16T17:15:16;1.50;;;1.00;;
41709;SDS011;59402;48.396;-4.472;2022-10-16T17:18:34;0.30;;;0.17;;
41709;SDS011;59402;48.396;-4.472;2022-10-16T17:21:52;0.68;;;0.45;;
41709;SDS011;59402;48.396;-4.472;2022-10-16T17:25:10;5.63;;;2.65;;
41709;SDS011;59402;48.396;-4.472;2022-10-16T17:28:33;0.40;;;0.40;;
41709;SDS011;59402;48.396;-4.472;2022-10-16T17:31:51;1.15;;;0.77;;
41709;SDS011;59402;48.396;-4.472;2022-10-16T17:35:09;6.60;;;0.90;;
41709;SDS011;59402;48.396;-4.472;2022-10-16T17:38:28;4.13;;;1.77;;
41709;SDS011;59402;48.396;-4.472;2022-10-16T17:41:47;0.30;;;0.30;;
41709;SDS011;59402;48.396;-4.472;2022-10-16T17:45:05;1.00;;;0.75;;
41709;SDS011;59402;48.396;-4.472;2022-10-16T17:48:26;0.73;;;0.55;;
41709;SDS011;59402;48.396;-4.472;2022-10-16T17:51:45;4.75;;;0.52;;
41709;SDS011;59402;48.396;-4.472;2022-10-16T17:55:06;0.93;;;0.77;;
41709;SDS011;59402;48.396;-4.472;2022-10-16T17:58:28;1.38;;;1.10;;
41709;SDS011;59402;48.396;-4.472;2022-10-16T18:01:47;4.47;;;1.05;;
41709;SDS011;59402;48.396;-4.472;2022-10-16T18:05:09;1.65;;;0.90;;
41709;SDS011;59402;48.396;-4.472;2022-10-16T18:08:30;1.45;;;0.93;;
41709;SDS011;59402;48.396;-4.472;2022-10-16T18:11:48;1.95;;;1.23;;
41709;SDS011;59402;48.396;-4.472;2022-10-16T18:15:06;0.93;;;0.57;;
41709;SDS011;59402;48.396;-4.472;2022-10-16T18:18:29;3.03;;;1.40;;
41709;SDS011;59402;48.396;-4.472;2022-10-16T18:21:47;6.20;;;2.15;;
41709;SDS011;59402;48.396;-4.472;2022-10-16T18:25:06;0.30;;;0.30;;
41709;SDS011;59402;48.396;-4.472;2022-10-16T18:28:24;0.73;;;0.70;;
41709;SDS011;59402;48.396;-4.472;2022-10-16T18:31:42;0.10;;;0.10;;
41709;SDS011;59402;48.396;-4.472;2022-10-16T18:35:00;1.17;;;0.85;;
41709;SDS011;59402;48.396;-4.472;2022-10-16T18:38:18;0.82;;;0.45;;
41709;SDS011;59402;48.396;-4.472;2022-10-16T18:41:38;0.75;;;0.75;;
41709;SDS011;59402;48.396;-4.472;2022-10-16T18:44:57;0.20;;;0.20;;
41709;SDS011;59402;48.396;-4.472;2022-10-16T18:48:47;1.45;;;1.35;;
41709;SDS011;59402;48.396;-4.472;2022-10-16T18:52:05;3.47;;;1.30;;
41709;SDS011;59402;48.396;-4.472;2022-10-16T18:55:23;6.40;;;1.10;;
41709;SDS011;59402;48.396;-4.472;2022-10-16T18:58:43;7.63;;;1.75;;
41709;SDS011;59402;48.396;-4.472;2022-10-16T19:02:01;10.43;;;2.30;;
41709;SDS011;59402;48.396;-4.472;2022-10-16T19:05:19;1.83;;;0.80;;
41709;SDS011;59402;48.396;-4.472;2022-10-16T19:08:38;1.00;;;0.68;;
41709;SDS011;59402;48.396;-4.472;2022-10-16T19:11:56;0.13;;;0.13;;
41709;SDS011;59402;48.396;-4.472;2022-10-16T19:15:14;1.35;;;0.95;;
41709;SDS011;59402;48.396;-4.472;2022-10-16T19:18:37;0.57;;;0.57;;
41709;SDS011;59402;48.396;-4.472;2022-10-16T19:21:55;0.10;;;0.10;;
41709;SDS011;59402;48.396;-4.472;2022-10-16T19:25:18;6.82;;;2.38;;
41709;SDS011;59402;48.396;-4.472;2022-10-16T19:28:38;0.88;;;0.80;;
41709;SDS011;59402;48.396;-4.472;2022-10-16T19:31:57;0.10;;;0.10;;
41709;SDS011;59402;48.396;-4.472;2022-10-16T19:35:17;0.75;;;0.22;;
41709;SDS011;59402;48.396;-4.472;2022-10-16T19:38:35;2.28;;;0.75;;
41709;SDS011;59402;48.396;-4.472;2022-10-16T19:41:53;0.40;;;0.40;;
41709;SDS011;59402;48.396;-4.472;2022-10-16T19:45:14;0.75;;;0.75;;
41709;SDS011;59402;48.396;-4.472;2022-10-16T19:48:36;1.75;;;1.13;;
41709;SDS011;59402;48.396;-4.472;2022-10-16T19:51:54;0.55;;;0.55;;
41709;SDS011;59402;48.396;-4.472;2022-10-16T19:55:12;1.20;;;0.55;;
41709;SDS011;59402;48.396;-4.472;2022-10-16T19:58:57;1.55;;;0.50;;
41709;SDS011;59402;48.396;-4.472;2022-10-16T20:02:16;0.55;;;0.52;;
41709;SDS011;59402;48.396;-4.472;2022-10-16T20:05:34;0.30;;;0.30;;
41709;SDS011;59402;48.396;-4.472;2022-10-16T20:08:53;0.25;;;0.25;;
41709;SDS011;59402;48.396;-4.472;2022-10-16T20:12:12;0.43;;;0.25;;
41709;SDS011;59402;48.396;-4.472;2022-10-16T20:15:32;0.35;;;0.35;;
41709;SDS011;59402;48.396;-4.472;2022-10-16T20:18:54;1.33;;;1.02;;
41709;SDS011;59402;48.396;-4.472;2022-10-16T20:22:12;2.40;;;1.33;;
41709;SDS011;59402;48.396;-4.472;2022-10-16T20:25:33;0.30;;;0.20;;
41709;SDS011;59402;48.396;-4.472;2022-10-16T20:28:52;0.10;;;0.00;;
41709;SDS011;59402;48.396;-4.472;2022-10-16T20:32:10;1.45;;;1.35;;
41709;SDS011;59402;48.396;-4.472;2022-10-16T20:35:29;2.33;;;1.58;;
41709;SDS011;59402;48.396;-4.472;2022-10-16T20:38:48;0.10;;;0.10;;
41709;SDS011;59402;48.396;-4.472;2022-10-16T20:42:06;0.10;;;0.10;;
41709;SDS011;59402;48.396;-4.472;2022-10-16T20:45:24;16.55;;;2.20;;
41709;SDS011;59402;48.396;-4.472;2022-10-16T20:48:44;0.20;;;0.20;;
41709;SDS011;59402;48.396;-4.472;2022-10-16T20:52:02;3.90;;;0.70;;
41709;SDS011;59402;48.396;-4.472;2022-10-16T20:55:21;8.70;;;1.27;;
41709;SDS011;59402;48.396;-4.472;2022-10-16T20:58:42;0.63;;;0.43;;
41709;SDS011;59402;48.396;-4.472;2022-10-16T21:02:00;0.10;;;0.10;;
41709;SDS011;59402;48.396;-4.472;2022-10-16T21:05:18;4.00;;;0.93;;
41709;SDS011;59402;48.396;-4.472;2022-10-16T21:08:37;0.73;;;0.25;;
41709;SDS011;59402;48.396;-4.472;2022-10-16T21:11:56;0.65;;;0.65;;
41709;SDS011;59402;48.396;-4.472;2022-10-16T21:15:19;0.20;;;0.20;;
41709;SDS011;59402;48.396;-4.472;2022-10-16T21:18:37;0.10;;;0.10;;
41709;SDS011;59402;48.396;-4.472;2022-10-16T21:21:56;0.63;;;0.45;;
41709;SDS011;59402;48.396;-4.472;2022-10-16T21:25:14;0.20;;;0.20;;
41709;SDS011;59402;48.396;-4.472;2022-10-16T21:28:33;3.83;;;1.70;;
41709;SDS011;59402;48.396;-4.472;2022-10-16T21:31:51;0.15;;;0.15;;
41709;SDS011;59402;48.396;-4.472;2022-10-16T21:35:09;0.98;;;0.82;;